sensor_id;sensor_type;location;lat;lon;timestamp;temperature;humidity
13375;DHT22;6756;51.354;15.754;2024-03-17T00:03:28;3.00;99.90
13375;DHT22;6756;51.354;15.754;2024-03-17T00:07:29;2.90;99.90
13375;DHT22;6756;51.354;15.754;2024-03-17T00:11:30;2.80;99.90
13375;DHT22;6756;51.354;15.754;2024-03-17T00:15:31;2.70;1.00
13375;DHT22;6756;51.354;15.754;2024-03-17T00:19:32;2.70;99.90
13375;DHT22;6756;51.354;15.754;2024-03-17T00:23:33;2.60;99.90
13375;DHT22;6756;51.354;15.754;2024-03-17T00:27:34;2.60;1.00
13375;DHT22;6756;51.354;15.754;2024-03-17T00:31:40;2.50;99.90
13375;DHT22;6756;51.354;15.754;2024-03-17T00:35:41;2.50;99.90
13375;DHT22;6756;51.354;15.754;2024-03-17T00:39:41;2.60;1.00
13375;DHT22;6756;51.354;15.754;2024-03-17T00:43:42;2.60;1.00
13375;DHT22;6756;51.354;15.754;2024-03-17T00:47:43;2.70;99.90
13375;DHT22;6756;51.354;15.754;2024-03-17T00:51:44;2.70;99.90
13375;DHT22;6756;51.354;15.754;2024-03-17T00:55:55;2.70;1.00
13375;DHT22;6756;51.354;15.754;2024-03-17T00:59:58;2.80;99.90
13375;DHT22;6756;51.354;15.754;2024-03-17T01:03:59;2.80;1.00
13375;DHT22;6756;51.354;15.754;2024-03-17T01:08:00;2.80;1.00
13375;DHT22;6756;51.354;15.754;2024-03-17T01:12:01;2.70;1.00
13375;DHT22;6756;51.354;15.754;2024-03-17T01:16:01;2.60;1.00
13375;DHT22;6756;51.354;15.754;2024-03-17T01:20:02;2.60;1.00
13375;DHT22;6756;51.354;15.754;2024-03-17T01:24:03;2.60;1.00
13375;DHT22;6756;51.354;15.754;2024-03-17T01:28:04;2.60;1.00
13375;DHT22;6756;51.354;15.754;2024-03-17T01:32:05;2.50;1.00
13375;DHT22;6756;51.354;15.754;2024-03-17T01:36:06;2.50;1.00
13375;DHT22;6756;51.354;15.754;2024-03-17T01:40:07;2.50;1.00
13375;DHT22;6756;51.354;15.754;2024-03-17T01:44:25;2.40;1.00
13375;DHT22;6756;51.354;15.754;2024-03-17T01:48:26;2.30;99.80
13375;DHT22;6756;51.354;15.754;2024-03-17T01:52:27;2.30;99.90
13375;DHT22;6756;51.354;15.754;2024-03-17T01:56:28;2.20;99.90
13375;DHT22;6756;51.354;15.754;2024-03-17T02:00:29;2.20;1.00
13375;DHT22;6756;51.354;15.754;2024-03-17T02:04:31;2.10;1.00
13375;DHT22;6756;51.354;15.754;2024-03-17T02:08:53;2.00;1.00
13375;DHT22;6756;51.354;15.754;2024-03-17T02:12:54;2.00;99.90
13375;DHT22;6756;51.354;15.754;2024-03-17T02:16:55;2.00;99.90
13375;DHT22;6756;51.354;15.754;2024-03-17T02:20:55;1.90;99.90
13375;DHT22;6756;51.354;15.754;2024-03-17T02:24:59;2.00;1.00
13375;DHT22;6756;51.354;15.754;2024-03-17T02:28:59;2.00;1.00
13375;DHT22;6756;51.354;15.754;2024-03-17T02:33:01;1.90;99.90
13375;DHT22;6756;51.354;15.754;2024-03-17T02:37:02;1.90;99.90
13375;DHT22;6756;51.354;15.754;2024-03-17T02:41:04;2.00;1.00
13375;DHT22;6756;51.354;15.754;2024-03-17T02:45:06;2.00;99.90
13375;DHT22;6756;51.354;15.754;2024-03-17T02:49:07;2.00;99.90
13375;DHT22;6756;51.354;15.754;2024-03-17T02:53:09;2.00;1.00
13375;DHT22;6756;51.354;15.754;2024-03-17T02:57:09;2.00;1.00
13375;DHT22;6756;51.354;15.754;2024-03-17T03:01:10;2.00;99.90
13375;DHT22;6756;51.354;15.754;2024-03-17T03:05:11;2.00;99.90
13375;DHT22;6756;51.354;15.754;2024-03-17T03:09:12;2.00;99.90
13375;DHT22;6756;51.354;15.754;2024-03-17T03:13:20;1.90;99.90
13375;DHT22;6756;51.354;15.754;2024-03-17T03:17:22;1.70;99.90
13375;DHT22;6756;51.354;15.754;2024-03-17T03:21:22;1.70;99.90
13375;DHT22;6756;51.354;15.754;2024-03-17T03:25:23;1.60;99.90
13375;DHT22;6756;51.354;15.754;2024-03-17T03:29:24;1.60;99.90
13375;DHT22;6756;51.354;15.754;2024-03-17T03:33:25;1.50;99.90
13375;DHT22;6756;51.354;15.754;2024-03-17T03:37:25;1.50;99.90
13375;DHT22;6756;51.354;15.754;2024-03-17T03:41:26;1.50;99.90
13375;DHT22;6756;51.354;15.754;2024-03-17T03:45:27;1.60;99.90
13375;DHT22;6756;51.354;15.754;2024-03-17T03:49:28;1.70;99.90
13375;DHT22;6756;51.354;15.754;2024-03-17T03:53:30;1.60;99.90
13375;DHT22;6756;51.354;15.754;2024-03-17T03:57:31;1.60;99.90
13375;DHT22;6756;51.354;15.754;2024-03-17T04:01:32;1.60;99.90
13375;DHT22;6756;51.354;15.754;2024-03-17T04:05:33;1.60;99.90
13375;DHT22;6756;51.354;15.754;2024-03-17T04:09:34;1.60;99.90
13375;DHT22;6756;51.354;15.754;2024-03-17T04:13:35;1.50;99.90
13375;DHT22;6756;51.354;15.754;2024-03-17T04:17:36;1.40;99.90
13375;DHT22;6756;51.354;15.754;2024-03-17T04:21:38;1.40;99.90
13375;DHT22;6756;51.354;15.754;2024-03-17T04:25:39;1.30;99.90
13375;DHT22;6756;51.354;15.754;2024-03-17T04:29:42;1.20;99.90
13375;DHT22;6756;51.354;15.754;2024-03-17T04:33:42;1.10;99.90
13375;DHT22;6756;51.354;15.754;2024-03-17T04:37:43;1.10;99.90
13375;DHT22;6756;51.354;15.754;2024-03-17T04:41:44;1.00;99.90
13375;DHT22;6756;51.354;15.754;2024-03-17T04:45:45;1.00;1.00
13375;DHT22;6756;51.354;15.754;2024-03-17T04:49:46;1.00;1.00
13375;DHT22;6756;51.354;15.754;2024-03-17T04:53:47;1.00;1.00
13375;DHT22;6756;51.354;15.754;2024-03-17T04:57:47;1.00;1.00
13375;DHT22;6756;51.354;15.754;2024-03-17T05:01:48;0.90;1.00
13375;DHT22;6756;51.354;15.754;2024-03-17T05:05:58;0.80;1.00
13375;DHT22;6756;51.354;15.754;2024-03-17T05:10:01;0.80;99.90
13375;DHT22;6756;51.354;15.754;2024-03-17T05:14:02;0.80;99.90
13375;DHT22;6756;51.354;15.754;2024-03-17T05:18:03;0.80;99.90
13375;DHT22;6756;51.354;15.754;2024-03-17T05:22:04;0.80;1.00
13375;DHT22;6756;51.354;15.754;2024-03-17T05:26:05;0.90;1.00
13375;DHT22;6756;51.354;15.754;2024-03-17T05:30:06;1.00;99.90
13375;DHT22;6756;51.354;15.754;2024-03-17T05:34:09;1.00;99.90
13375;DHT22;6756;51.354;15.754;2024-03-17T05:38:10;1.00;99.90
13375;DHT22;6756;51.354;15.754;2024-03-17T05:42:11;1.10;99.90
13375;DHT22;6756;51.354;15.754;2024-03-17T05:46:12;1.20;1.00
13375;DHT22;6756;51.354;15.754;2024-03-17T05:50:16;1.30;1.00
13375;DHT22;6756;51.354;15.754;2024-03-17T05:54:16;1.50;99.90
13375;DHT22;6756;51.354;15.754;2024-03-17T05:58:18;1.70;99.90
13375;DHT22;6756;51.354;15.754;2024-03-17T06:02:18;1.80;99.90
13375;DHT22;6756;51.354;15.754;2024-03-17T06:06:19;1.80;99.90
13375;DHT22;6756;51.354;15.754;2024-03-17T06:10:20;1.90;99.90
13375;DHT22;6756;51.354;15.754;2024-03-17T06:14:24;2.00;99.90
13375;DHT22;6756;51.354;15.754;2024-03-17T06:18:25;2.00;99.90
13375;DHT22;6756;51.354;15.754;2024-03-17T06:22:26;2.10;99.90
13375;DHT22;6756;51.354;15.754;2024-03-17T06:26:26;2.30;88.20
13375;DHT22;6756;51.354;15.754;2024-03-17T06:30:27;2.40;36.70
13375;DHT22;6756;51.354;15.754;2024-03-17T06:34:28;2.50;37.80
13375;DHT22;6756;51.354;15.754;2024-03-17T06:38:29;2.60;1.00
13375;DHT22;6756;51.354;15.754;2024-03-17T06:42:30;2.70;1.00
13375;DHT22;6756;51.354;15.754;2024-03-17T06:46:31;2.80;1.00
13375;DHT22;6756;51.354;15.754;2024-03-17T06:50:32;3.00;1.00
13375;DHT22;6756;51.354;15.754;2024-03-17T06:54:32;3.10;1.00
13375;DHT22;6756;51.354;15.754;2024-03-17T06:58:34;3.20;1.00
13375;DHT22;6756;51.354;15.754;2024-03-17T07:02:34;3.40;1.00
13375;DHT22;6756;51.354;15.754;2024-03-17T07:06:36;3.50;1.00
13375;DHT22;6756;51.354;15.754;2024-03-17T07:10:37;3.50;1.00
13375;DHT22;6756;51.354;15.754;2024-03-17T07:14:38;3.70;1.00
13375;DHT22;6756;51.354;15.754;2024-03-17T07:18:39;3.80;1.00
13375;DHT22;6756;51.354;15.754;2024-03-17T07:22:40;3.90;1.00
13375;DHT22;6756;51.354;15.754;2024-03-17T07:26:41;4.00;1.00
13375;DHT22;6756;51.354;15.754;2024-03-17T07:30:53;4.20;1.00
13375;DHT22;6756;51.354;15.754;2024-03-17T07:34:54;4.30;1.00
13375;DHT22;6756;51.354;15.754;2024-03-17T07:38:55;4.40;1.00
13375;DHT22;6756;51.354;15.754;2024-03-17T07:42:56;4.50;1.00
13375;DHT22;6756;51.354;15.754;2024-03-17T07:46:57;4.70;1.00
13375;DHT22;6756;51.354;15.754;2024-03-17T07:51:02;5.10;1.00
13375;DHT22;6756;51.354;15.754;2024-03-17T07:55:04;5.10;1.00
13375;DHT22;6756;51.354;15.754;2024-03-17T07:59:05;5.20;1.00
13375;DHT22;6756;51.354;15.754;2024-03-17T08:03:12;5.20;1.00
13375;DHT22;6756;51.354;15.754;2024-03-17T08:07:13;5.30;1.00
13375;DHT22;6756;51.354;15.754;2024-03-17T08:11:13;5.50;1.00
13375;DHT22;6756;51.354;15.754;2024-03-17T08:15:14;5.40;1.00
13375;DHT22;6756;51.354;15.754;2024-03-17T08:19:15;5.70;1.00
13375;DHT22;6756;51.354;15.754;2024-03-17T08:23:16;5.80;1.00
13375;DHT22;6756;51.354;15.754;2024-03-17T08:27:16;5.90;1.00
13375;DHT22;6756;51.354;15.754;2024-03-17T08:31:17;5.90;1.00
13375;DHT22;6756;51.354;15.754;2024-03-17T08:35:18;5.50;1.00
13375;DHT22;6756;51.354;15.754;2024-03-17T08:39:18;5.50;1.00
13375;DHT22;6756;51.354;15.754;2024-03-17T08:43:20;5.60;1.00
13375;DHT22;6756;51.354;15.754;2024-03-17T08:47:21;5.40;1.00
13375;DHT22;6756;51.354;15.754;2024-03-17T08:51:22;5.60;1.00
13375;DHT22;6756;51.354;15.754;2024-03-17T08:55:23;5.70;1.00
13375;DHT22;6756;51.354;15.754;2024-03-17T08:59:24;6.10;1.00
13375;DHT22;6756;51.354;15.754;2024-03-17T09:03:24;6.20;1.00
13375;DHT22;6756;51.354;15.754;2024-03-17T09:07:27;5.60;1.00
13375;DHT22;6756;51.354;15.754;2024-03-17T09:11:31;5.40;1.00
13375;DHT22;6756;51.354;15.754;2024-03-17T09:15:32;5.50;1.00
13375;DHT22;6756;51.354;15.754;2024-03-17T09:19:33;5.90;1.00
13375;DHT22;6756;51.354;15.754;2024-03-17T09:23:34;6.20;1.00
13375;DHT22;6756;51.354;15.754;2024-03-17T09:27:36;6.70;1.00
13375;DHT22;6756;51.354;15.754;2024-03-17T09:31:39;6.90;1.00
13375;DHT22;6756;51.354;15.754;2024-03-17T09:35:41;7.30;1.00
13375;DHT22;6756;51.354;15.754;2024-03-17T09:39:42;7.50;1.00
13375;DHT22;6756;51.354;15.754;2024-03-17T09:43:47;7.40;1.00
13375;DHT22;6756;51.354;15.754;2024-03-17T09:47:49;7.50;1.00
13375;DHT22;6756;51.354;15.754;2024-03-17T09:51:50;6.70;1.00
13375;DHT22;6756;51.354;15.754;2024-03-17T09:56:18;6.30;1.00
13375;DHT22;6756;51.354;15.754;2024-03-17T10:00:20;6.40;1.00
13375;DHT22;6756;51.354;15.754;2024-03-17T10:04:39;6.80;1.00
13375;DHT22;6756;51.354;15.754;2024-03-17T10:08:48;6.70;1.00
13375;DHT22;6756;51.354;15.754;2024-03-17T10:12:50;6.30;1.00
13375;DHT22;6756;51.354;15.754;2024-03-17T10:16:51;6.00;1.00
13375;DHT22;6756;51.354;15.754;2024-03-17T10:20:52;5.90;1.00
13375;DHT22;6756;51.354;15.754;2024-03-17T10:24:59;6.40;1.00
13375;DHT22;6756;51.354;15.754;2024-03-17T10:29:00;6.90;1.00
13375;DHT22;6756;51.354;15.754;2024-03-17T10:33:02;6.90;1.00
13375;DHT22;6756;51.354;15.754;2024-03-17T10:41:09;7.10;1.00
13375;DHT22;6756;51.354;15.754;2024-03-17T10:45:11;6.60;1.00
13375;DHT22;6756;51.354;15.754;2024-03-17T10:49:14;6.70;1.00
13375;DHT22;6756;51.354;15.754;2024-03-17T10:53:19;7.10;1.00
13375;DHT22;6756;51.354;15.754;2024-03-17T11:01:36;7.50;1.00
13375;DHT22;6756;51.354;15.754;2024-03-17T11:05:37;8.00;1.00
13375;DHT22;6756;51.354;15.754;2024-03-17T11:09:39;8.40;1.00
13375;DHT22;6756;51.354;15.754;2024-03-17T11:13:40;8.60;1.00
13375;DHT22;6756;51.354;15.754;2024-03-17T11:17:41;8.40;1.00
13375;DHT22;6756;51.354;15.754;2024-03-17T11:21:42;8.20;99.90
13375;DHT22;6756;51.354;15.754;2024-03-17T11:25:52;8.40;99.90
13375;DHT22;6756;51.354;15.754;2024-03-17T11:29:53;8.50;99.90
13375;DHT22;6756;51.354;15.754;2024-03-17T11:33:53;8.50;99.90
13375;DHT22;6756;51.354;15.754;2024-03-17T11:37:56;8.60;1.00
13375;DHT22;6756;51.354;15.754;2024-03-17T11:42:05;8.20;1.00
13375;DHT22;6756;51.354;15.754;2024-03-17T11:46:11;7.90;99.90
13375;DHT22;6756;51.354;15.754;2024-03-17T11:50:12;7.60;99.90
13375;DHT22;6756;51.354;15.754;2024-03-17T11:54:15;7.60;99.90
13375;DHT22;6756;51.354;15.754;2024-03-17T11:58:19;7.80;99.90
13375;DHT22;6756;51.354;15.754;2024-03-17T12:06:22;7.70;99.90
13375;DHT22;6756;51.354;15.754;2024-03-17T12:10:22;7.50;99.90
13375;DHT22;6756;51.354;15.754;2024-03-17T12:14:23;7.50;99.90
13375;DHT22;6756;51.354;15.754;2024-03-17T12:18:26;7.50;99.90
13375;DHT22;6756;51.354;15.754;2024-03-17T12:22:29;7.90;99.90
13375;DHT22;6756;51.354;15.754;2024-03-17T12:26:34;7.60;99.90
13375;DHT22;6756;51.354;15.754;2024-03-17T12:30:36;7.40;99.90
13375;DHT22;6756;51.354;15.754;2024-03-17T12:34:37;7.50;99.90
13375;DHT22;6756;51.354;15.754;2024-03-17T12:38:38;7.90;1.00
13375;DHT22;6756;51.354;15.754;2024-03-17T12:42:39;8.20;99.90
13375;DHT22;6756;51.354;15.754;2024-03-17T12:46:39;8.00;99.90
13375;DHT22;6756;51.354;15.754;2024-03-17T12:50:47;7.80;99.90
13375;DHT22;6756;51.354;15.754;2024-03-17T12:59:19;7.80;99.90
13375;DHT22;6756;51.354;15.754;2024-03-17T13:03:49;7.90;99.90
13375;DHT22;6756;51.354;15.754;2024-03-17T13:07:53;8.10;99.90
13375;DHT22;6756;51.354;15.754;2024-03-17T13:11:58;8.00;99.90
13375;DHT22;6756;51.354;15.754;2024-03-17T13:15:59;8.00;99.90
13375;DHT22;6756;51.354;15.754;2024-03-17T13:20:00;8.20;99.90
13375;DHT22;6756;51.354;15.754;2024-03-17T13:24:02;8.10;99.90
13375;DHT22;6756;51.354;15.754;2024-03-17T13:28:03;8.50;99.90
13375;DHT22;6756;51.354;15.754;2024-03-17T13:32:05;8.70;99.90
13375;DHT22;6756;51.354;15.754;2024-03-17T13:36:05;8.30;99.90
13375;DHT22;6756;51.354;15.754;2024-03-17T13:40:07;8.40;99.90
13375;DHT22;6756;51.354;15.754;2024-03-17T13:44:08;9.00;99.90
13375;DHT22;6756;51.354;15.754;2024-03-17T13:48:10;9.10;99.90
13375;DHT22;6756;51.354;15.754;2024-03-17T13:52:13;9.20;99.90
13375;DHT22;6756;51.354;15.754;2024-03-17T13:56:14;9.30;99.90
13375;DHT22;6756;51.354;15.754;2024-03-17T14:00:15;9.20;99.90
13375;DHT22;6756;51.354;15.754;2024-03-17T14:04:19;9.20;99.90
13375;DHT22;6756;51.354;15.754;2024-03-17T14:08:21;8.80;99.90
13375;DHT22;6756;51.354;15.754;2024-03-17T14:12:21;8.50;1.00
13375;DHT22;6756;51.354;15.754;2024-03-17T14:16:22;8.40;99.90
13375;DHT22;6756;51.354;15.754;2024-03-17T14:20:23;8.40;99.90
13375;DHT22;6756;51.354;15.754;2024-03-17T14:24:24;8.30;99.90
13375;DHT22;6756;51.354;15.754;2024-03-17T14:28:25;8.00;99.90
13375;DHT22;6756;51.354;15.754;2024-03-17T14:32:25;8.10;99.90
13375;DHT22;6756;51.354;15.754;2024-03-17T14:36:30;8.10;99.90
13375;DHT22;6756;51.354;15.754;2024-03-17T14:40:31;8.20;99.90
13375;DHT22;6756;51.354;15.754;2024-03-17T14:44:34;8.20;99.90
13375;DHT22;6756;51.354;15.754;2024-03-17T14:48:35;8.20;99.90
13375;DHT22;6756;51.354;15.754;2024-03-17T14:52:37;8.20;99.90
13375;DHT22;6756;51.354;15.754;2024-03-17T14:56:38;8.00;99.90
13375;DHT22;6756;51.354;15.754;2024-03-17T15:00:40;8.10;99.90
13375;DHT22;6756;51.354;15.754;2024-03-17T15:04:42;8.00;99.90
13375;DHT22;6756;51.354;15.754;2024-03-17T15:08:43;7.90;99.90
13375;DHT22;6756;51.354;15.754;2024-03-17T15:12:44;7.70;99.90
13375;DHT22;6756;51.354;15.754;2024-03-17T15:16:45;7.70;99.90
13375;DHT22;6756;51.354;15.754;2024-03-17T15:20:54;7.50;99.90
13375;DHT22;6756;51.354;15.754;2024-03-17T15:24:57;7.40;99.90
13375;DHT22;6756;51.354;15.754;2024-03-17T15:28:58;7.30;99.90
13375;DHT22;6756;51.354;15.754;2024-03-17T15:33:03;7.40;99.90
13375;DHT22;6756;51.354;15.754;2024-03-17T15:37:05;7.40;99.90
13375;DHT22;6756;51.354;15.754;2024-03-17T15:41:07;7.30;99.90
13375;DHT22;6756;51.354;15.754;2024-03-17T15:45:11;7.20;99.90
13375;DHT22;6756;51.354;15.754;2024-03-17T15:49:12;7.10;99.90
13375;DHT22;6756;51.354;15.754;2024-03-17T15:53:13;7.10;99.90
13375;DHT22;6756;51.354;15.754;2024-03-17T15:57:13;7.30;99.90
13375;DHT22;6756;51.354;15.754;2024-03-17T16:01:14;7.40;99.90
13375;DHT22;6756;51.354;15.754;2024-03-17T16:05:18;7.30;99.90
13375;DHT22;6756;51.354;15.754;2024-03-17T16:09:19;7.20;99.90
13375;DHT22;6756;51.354;15.754;2024-03-17T16:13:20;7.20;99.90
13375;DHT22;6756;51.354;15.754;2024-03-17T16:17:22;7.20;99.90
13375;DHT22;6756;51.354;15.754;2024-03-17T16:21:23;7.20;99.90
13375;DHT22;6756;51.354;15.754;2024-03-17T16:25:25;7.20;99.90
13375;DHT22;6756;51.354;15.754;2024-03-17T16:29:26;7.10;99.90
13375;DHT22;6756;51.354;15.754;2024-03-17T16:33:27;7.00;99.90
13375;DHT22;6756;51.354;15.754;2024-03-17T16:37:28;6.90;99.90
13375;DHT22;6756;51.354;15.754;2024-03-17T16:41:30;6.90;99.90
13375;DHT22;6756;51.354;15.754;2024-03-17T16:45:31;6.80;99.90
13375;DHT22;6756;51.354;15.754;2024-03-17T16:49:35;6.80;99.90
13375;DHT22;6756;51.354;15.754;2024-03-17T16:53:38;6.70;99.90
13375;DHT22;6756;51.354;15.754;2024-03-17T16:57:39;6.70;99.90
13375;DHT22;6756;51.354;15.754;2024-03-17T17:01:40;6.50;99.90
13375;DHT22;6756;51.354;15.754;2024-03-17T17:05:41;6.40;99.90
13375;DHT22;6756;51.354;15.754;2024-03-17T17:09:42;6.40;99.90
13375;DHT22;6756;51.354;15.754;2024-03-17T17:13:44;6.20;99.90
13375;DHT22;6756;51.354;15.754;2024-03-17T17:17:46;6.10;99.90
13375;DHT22;6756;51.354;15.754;2024-03-17T17:21:49;6.10;99.90
13375;DHT22;6756;51.354;15.754;2024-03-17T17:25:52;5.90;99.90
13375;DHT22;6756;51.354;15.754;2024-03-17T17:29:52;5.70;99.90
13375;DHT22;6756;51.354;15.754;2024-03-17T17:33:54;5.60;1.00
13375;DHT22;6756;51.354;15.754;2024-03-17T17:37:55;5.40;1.00
13375;DHT22;6756;51.354;15.754;2024-03-17T17:41:56;5.20;1.00
13375;DHT22;6756;51.354;15.754;2024-03-17T17:46:02;5.10;1.00
13375;DHT22;6756;51.354;15.754;2024-03-17T17:50:04;5.00;1.00
13375;DHT22;6756;51.354;15.754;2024-03-17T17:54:06;4.90;1.00
13375;DHT22;6756;51.354;15.754;2024-03-17T17:58:07;4.80;1.00
13375;DHT22;6756;51.354;15.754;2024-03-17T18:02:08;4.60;1.00
13375;DHT22;6756;51.354;15.754;2024-03-17T18:06:10;4.40;1.00
13375;DHT22;6756;51.354;15.754;2024-03-17T18:10:13;4.20;1.00
13375;DHT22;6756;51.354;15.754;2024-03-17T18:14:15;4.00;1.00
13375;DHT22;6756;51.354;15.754;2024-03-17T18:18:16;3.90;1.00
13375;DHT22;6756;51.354;15.754;2024-03-17T18:22:19;3.60;1.00
13375;DHT22;6756;51.354;15.754;2024-03-17T18:26:20;3.50;1.00
13375;DHT22;6756;51.354;15.754;2024-03-17T18:30:24;3.30;1.00
13375;DHT22;6756;51.354;15.754;2024-03-17T18:34:25;3.00;1.00
13375;DHT22;6756;51.354;15.754;2024-03-17T18:38:29;3.00;1.00
13375;DHT22;6756;51.354;15.754;2024-03-17T18:42:32;2.90;1.00
13375;DHT22;6756;51.354;15.754;2024-03-17T18:46:34;2.90;1.00
13375;DHT22;6756;51.354;15.754;2024-03-17T18:50:35;2.80;1.00
13375;DHT22;6756;51.354;15.754;2024-03-17T18:54:37;2.70;1.00
13375;DHT22;6756;51.354;15.754;2024-03-17T18:58:38;2.60;1.00
13375;DHT22;6756;51.354;15.754;2024-03-17T19:02:42;2.60;1.00
13375;DHT22;6756;51.354;15.754;2024-03-17T19:06:43;2.40;1.00
13375;DHT22;6756;51.354;15.754;2024-03-17T19:10:53;2.20;1.00
13375;DHT22;6756;51.354;15.754;2024-03-17T19:14:54;1.90;1.00
13375;DHT22;6756;51.354;15.754;2024-03-17T19:18:54;1.60;1.00
13375;DHT22;6756;51.354;15.754;2024-03-17T19:22:56;1.50;1.00
13375;DHT22;6756;51.354;15.754;2024-03-17T19:26:57;1.40;1.00
13375;DHT22;6756;51.354;15.754;2024-03-17T19:30:58;1.30;1.00
13375;DHT22;6756;51.354;15.754;2024-03-17T19:35:00;1.10;1.00
13375;DHT22;6756;51.354;15.754;2024-03-17T19:39:01;0.80;1.00
13375;DHT22;6756;51.354;15.754;2024-03-17T19:43:04;0.60;1.00
13375;DHT22;6756;51.354;15.754;2024-03-17T19:47:09;0.40;1.00
13375;DHT22;6756;51.354;15.754;2024-03-17T19:51:18;0.20;1.00
13375;DHT22;6756;51.354;15.754;2024-03-17T19:55:19;0.00;1.00
13375;DHT22;6756;51.354;15.754;2024-03-17T19:59:23;-0.10;1.00
13375;DHT22;6756;51.354;15.754;2024-03-17T20:03:24;-0.30;1.00
13375;DHT22;6756;51.354;15.754;2024-03-17T20:07:26;-0.40;1.00
13375;DHT22;6756;51.354;15.754;2024-03-17T20:11:27;-0.50;1.00
13375;DHT22;6756;51.354;15.754;2024-03-17T20:15:27;-0.60;1.00
13375;DHT22;6756;51.354;15.754;2024-03-17T20:19:29;-0.60;1.00
13375;DHT22;6756;51.354;15.754;2024-03-17T20:23:30;-0.60;1.00
13375;DHT22;6756;51.354;15.754;2024-03-17T20:27:30;-0.60;1.00
13375;DHT22;6756;51.354;15.754;2024-03-17T20:31:31;-0.60;1.00
13375;DHT22;6756;51.354;15.754;2024-03-17T20:35:35;-0.60;1.00
13375;DHT22;6756;51.354;15.754;2024-03-17T20:39:36;-0.50;1.00
13375;DHT22;6756;51.354;15.754;2024-03-17T20:43:37;-0.50;1.00
13375;DHT22;6756;51.354;15.754;2024-03-17T20:47:39;-0.50;1.00
13375;DHT22;6756;51.354;15.754;2024-03-17T20:51:42;-0.40;1.00
13375;DHT22;6756;51.354;15.754;2024-03-17T20:55:43;-0.40;1.00
13375;DHT22;6756;51.354;15.754;2024-03-17T20:59:45;-0.30;1.00
13375;DHT22;6756;51.354;15.754;2024-03-17T21:03:46;-0.20;1.00
13375;DHT22;6756;51.354;15.754;2024-03-17T21:07:47;-0.20;1.00
13375;DHT22;6756;51.354;15.754;2024-03-17T21:11:49;-0.20;1.00
13375;DHT22;6756;51.354;15.754;2024-03-17T21:15:50;-0.20;1.00
13375;DHT22;6756;51.354;15.754;2024-03-17T21:19:52;-0.20;1.00
13375;DHT22;6756;51.354;15.754;2024-03-17T21:23:54;-0.20;1.00
13375;DHT22;6756;51.354;15.754;2024-03-17T21:27:55;-0.10;1.00
13375;DHT22;6756;51.354;15.754;2024-03-17T21:31:56;-0.10;1.00
13375;DHT22;6756;51.354;15.754;2024-03-17T21:35:57;0.00;1.00
13375;DHT22;6756;51.354;15.754;2024-03-17T21:39:58;0.10;1.00
13375;DHT22;6756;51.354;15.754;2024-03-17T21:43:59;0.20;1.00
13375;DHT22;6756;51.354;15.754;2024-03-17T21:48:00;0.30;1.00
13375;DHT22;6756;51.354;15.754;2024-03-17T21:52:02;0.30;1.00
13375;DHT22;6756;51.354;15.754;2024-03-17T21:56:03;0.30;1.00
13375;DHT22;6756;51.354;15.754;2024-03-17T22:00:06;0.30;1.00
13375;DHT22;6756;51.354;15.754;2024-03-17T22:04:13;0.20;1.00
13375;DHT22;6756;51.354;15.754;2024-03-17T22:08:18;0.10;1.00
13375;DHT22;6756;51.354;15.754;2024-03-17T22:12:20;-0.10;1.00
13375;DHT22;6756;51.354;15.754;2024-03-17T22:16:21;-0.30;1.00
13375;DHT22;6756;51.354;15.754;2024-03-17T22:20:21;-0.60;1.00
13375;DHT22;6756;51.354;15.754;2024-03-17T22:24:23;-0.80;1.00
13375;DHT22;6756;51.354;15.754;2024-03-17T22:28:24;-1.00;1.00
13375;DHT22;6756;51.354;15.754;2024-03-17T22:32:26;-1.10;58.30
13375;DHT22;6756;51.354;15.754;2024-03-17T22:36:26;-1.20;64.80
13375;DHT22;6756;51.354;15.754;2024-03-17T22:40:27;-1.40;66.60
13375;DHT22;6756;51.354;15.754;2024-03-17T22:44:28;-1.50;79.70
13375;DHT22;6756;51.354;15.754;2024-03-17T22:48:29;-1.70;95.50
13375;DHT22;6756;51.354;15.754;2024-03-17T22:52:34;-1.80;99.90
13375;DHT22;6756;51.354;15.754;2024-03-17T22:56:35;-2.00;99.90
13375;DHT22;6756;51.354;15.754;2024-03-17T23:00:38;-2.10;99.90
13375;DHT22;6756;51.354;15.754;2024-03-17T23:04:42;-2.20;99.90
13375;DHT22;6756;51.354;15.754;2024-03-17T23:08:43;-2.30;99.90
13375;DHT22;6756;51.354;15.754;2024-03-17T23:12:44;-2.40;99.90
13375;DHT22;6756;51.354;15.754;2024-03-17T23:16:44;-2.50;99.90
13375;DHT22;6756;51.354;15.754;2024-03-17T23:20:45;-2.60;99.90
13375;DHT22;6756;51.354;15.754;2024-03-17T23:24:46;-2.70;99.90
13375;DHT22;6756;51.354;15.754;2024-03-17T23:28:47;-2.80;99.90
13375;DHT22;6756;51.354;15.754;2024-03-17T23:32:48;-2.90;99.90
13375;DHT22;6756;51.354;15.754;2024-03-17T23:36:49;-3.00;99.90
13375;DHT22;6756;51.354;15.754;2024-03-17T23:40:49;-3.10;99.90
13375;DHT22;6756;51.354;15.754;2024-03-17T23:44:50;-3.10;99.90
13375;DHT22;6756;51.354;15.754;2024-03-17T23:48:52;-3.20;99.90
13375;DHT22;6756;51.354;15.754;2024-03-17T23:52:53;-3.20;1.00
13375;DHT22;6756;51.354;15.754;2024-03-17T23:56:54;-3.30;1.00
